Time;durP1;ratioP1;P1;durP2;ratioP2;P2;SDS_P1;SDS_P2;PMS_P1;PMS_P2;Temp;Humidity;BMP_temperature;BMP_pressure;BME280_temperature;BME280_humidity;BME280_pressure;Samples;Min_cycle;Max_cycle;Signal;HPM_P1;HPM_P2
2022/05/07 00:00:40;;;;;;;9.80;2.33;;;;;;;6.64;98.30;99095.38;5066952;28;20027;-70
2022/05/07 00:03:06;;;;;;;2.30;1.67;;;;;;;6.66;98.48;99095.38;5067137;28;20037;-70
2022/05/07 00:05:31;;;;;;;3.47;2.45;;;;;;;6.57;97.99;99087.50;5067411;28;20380;-70
2022/05/07 00:07:57;;;;;;;5.55;1.98;;;;;;;6.48;98.17;99090.06;5067155;28;20324;-70
2022/05/07 00:10:23;;;;;;;3.97;2.00;;;;;;;6.64;98.48;99090.13;5059895;28;20022;-70
2022/05/07 00:12:49;;;;;;;3.15;2.13;;;;;;;6.57;98.11;99090.09;5047061;28;20033;-70
2022/05/07 00:15:15;;;;;;;2.75;1.95;;;;;;;6.58;97.96;99086.59;5046987;28;20044;-71
2022/05/07 00:20:24;;;;;;;5.53;2.17;;;;;;;6.16;99.58;99078.59;5046867;28;20071;-70
2022/05/07 00:23:01;;;;;;;8.48;2.47;;;;;;;6.33;100.00;99077.81;5059783;28;20028;-70
2022/05/07 00:25:28;;;;;;;3.70;2.13;;;;;;;6.34;99.75;99086.53;5047800;28;20439;-70
2022/05/07 00:27:54;;;;;;;4.38;2.20;;;;;;;6.43;99.30;99086.56;5046753;28;20313;-70
2022/05/07 00:30:20;;;;;;;3.15;2.05;;;;;;;6.38;97.75;99083.06;5046742;28;20021;-70
2022/05/07 00:32:46;;;;;;;8.30;2.78;;;;;;;6.13;98.20;99081.19;5046681;28;20017;-70
2022/05/07 00:35:11;;;;;;;2.33;1.83;;;;;;;6.06;98.91;99079.41;5048296;28;20384;-70
2022/05/07 00:37:37;;;;;;;3.85;2.40;;;;;;;6.15;99.53;99087.31;5066522;28;20032;-70
2022/05/07 00:40:04;;;;;;;4.60;2.53;;;;;;;6.25;98.81;99076.91;5066510;28;20032;-70
2022/05/07 00:42:30;;;;;;;4.43;2.40;;;;;;;6.25;98.66;99076.03;5066413;28;20048;-70
2022/05/07 00:44:55;;;;;;;3.17;1.90;;;;;;;6.08;98.03;99077.69;5065503;28;20197;-70
2022/05/07 00:47:33;;;;;;;3.20;2.08;;;;;;;6.06;98.53;99076.78;5066340;28;20062;-70
2022/05/07 00:52:50;;;;;;;17.40;2.22;;;;;;;6.13;98.59;99083.78;5064093;28;20340;-70
2022/05/07 00:55:16;;;;;;;4.70;2.38;;;;;;;6.12;99.00;99079.44;5066501;28;20017;-70
2022/05/07 00:57:42;;;;;;;5.97;2.17;;;;;;;6.14;98.78;99082.97;5066113;28;20121;-70
2022/05/07 01:00:09;;;;;;;3.20;1.88;;;;;;;6.08;98.60;99077.69;5066122;28;20044;-70
2022/05/07 01:02:36;;;;;;;4.93;2.30;;;;;;;6.11;98.70;99088.16;5065907;28;20020;-70
2022/05/07 01:05:02;;;;;;;9.70;2.40;;;;;;;6.12;97.81;99085.56;5057684;28;20041;-70
2022/05/07 01:07:27;;;;;;;4.95;2.50;;;;;;;6.03;97.75;99079.38;5046075;28;20021;-70
2022/05/07 01:09:53;;;;;;;2.83;1.73;;;;;;;5.98;98.38;99081.13;5046023;28;20247;-70
2022/05/07 01:12:19;;;;;;;3.05;2.08;;;;;;;5.84;98.36;99085.38;5045897;28;20229;-70
2022/05/07 01:14:44;;;;;;;2.97;2.03;;;;;;;5.78;98.94;99083.56;5046162;28;20092;-70
2022/05/07 01:17:10;;;;;;;2.75;1.58;;;;;;;5.82;99.47;99076.66;5045812;28;20027;-70
2022/05/07 01:19:36;;;;;;;3.25;2.03;;;;;;;5.76;99.34;99081.81;5045789;28;20135;-70
2022/05/07 01:22:02;;;;;;;8.55;2.00;;;;;;;5.71;99.27;99075.69;5047785;28;20055;-70
2022/05/07 01:24:31;;;;;;;2.80;1.90;;;;;;;5.58;99.51;99077.34;5065659;28;20084;-70
2022/05/07 01:26:57;;;;;;;3.38;1.75;;;;;;;5.69;100.00;99082.63;5065725;28;20020;-70
2022/05/07 01:29:24;;;;;;;2.30;1.70;;;;;;;5.66;100.00;99074.78;5065599;28;20024;-70
2022/05/07 01:31:50;;;;;;;3.85;1.92;;;;;;;5.61;99.75;99073.88;5065589;28;20316;-70
2022/05/07 01:34:15;;;;;;;2.53;1.80;;;;;;;5.67;99.79;99068.69;5065483;28;20027;-70
2022/05/07 01:36:41;;;;;;;3.67;2.22;;;;;;;5.67;100.00;99072.16;5065167;28;20025;-70
2022/05/07 01:39:06;;;;;;;3.05;1.83;;;;;;;5.57;99.66;99072.09;5065304;28;20025;-70
2022/05/07 01:41:31;;;;;;;6.15;2.00;;;;;;;5.67;100.00;99073.91;5062309;28;20117;-70
2022/05/07 01:43:58;;;;;;;2.75;1.60;;;;;;;5.60;99.91;99072.13;5045352;28;20025;-70
2022/05/07 01:49:08;;;;;;;4.35;2.03;;;;;;;5.62;100.00;99065.16;5045243;28;20031;-70
2022/05/07 01:51:34;;;;;;;4.65;2.05;;;;;;;5.54;100.00;99057.28;5045180;28;20029;-70
2022/05/07 01:53:59;;;;;;;3.10;1.88;;;;;;;5.53;100.00;99065.09;5045145;28;20025;-70
2022/05/07 01:56:25;;;;;;;3.45;1.90;;;;;;;5.59;99.85;99063.41;5044146;28;20031;-70
2022/05/07 01:58:50;;;;;;;3.70;1.80;;;;;;;5.54;99.41;99066.88;5045029;28;20376;-70
2022/05/07 02:01:16;;;;;;;3.28;1.70;;;;;;;5.50;99.38;99062.47;5045447;28;20089;-70
2022/05/07 02:03:46;;;;;;;3.35;2.03;;;;;;;5.26;99.16;99055.34;5064733;28;20108;-70
2022/05/07 02:06:11;;;;;;;2.38;1.73;;;;;;;5.14;99.96;99059.56;5064830;28;20024;-70
2022/05/07 02:08:37;;;;;;;2.85;1.90;;;;;;;5.21;100.00;99066.56;5064950;28;20331;-70
2022/05/07 02:11:02;;;;;;;4.45;1.98;;;;;;;5.33;100.00;99064.06;5052057;28;20029;-70
2022/05/07 02:13:28;;;;;;;2.97;2.00;;;;;;;5.31;99.98;99068.44;5044847;28;20130;-70
2022/05/07 02:15:54;;;;;;;2.30;1.80;;;;;;;5.34;99.46;99057.97;5044764;28;20032;-70
2022/05/07 02:18:19;;;;;;;3.08;1.98;;;;;;;5.32;99.71;99064.94;5044696;28;20025;-69
2022/05/07 02:20:45;;;;;;;2.75;2.17;;;;;;;5.23;99.84;99064.88;5045542;28;20040;-69
2022/05/07 02:23:10;;;;;;;2.40;1.73;;;;;;;5.05;99.47;99064.69;5064798;28;20028;-69
2022/05/07 02:25:36;;;;;;;5.88;1.70;;;;;;;4.90;100.00;99065.41;5064795;28;20079;-69
2022/05/07 02:28:03;;;;;;;2.40;1.67;;;;;;;4.84;100.00;99065.34;5064671;28;20131;-70
2022/05/07 02:30:28;;;;;;;4.25;2.25;;;;;;;4.97;100.00;99058.53;5064495;28;20028;-70
2022/05/07 02:32:54;;;;;;;2.75;1.80;;;;;;;4.96;100.00;99059.38;5064364;28;20017;-70
2022/05/07 02:35:21;;;;;;;3.15;1.67;;;;;;;4.97;100.00;99061.16;5064175;28;20064;-70
2022/05/07 02:37:47;;;;;;;5.18;2.17;;;;;;;5.03;100.00;99056.00;5064278;28;20343;-70
2022/05/07 02:40:16;;;;;;;3.10;1.95;;;;;;;5.08;100.00;99064.72;5064282;28;20024;-70
2022/05/07 02:42:41;;;;;;;3.90;2.15;;;;;;;5.09;100.00;99061.28;5050228;28;20155;-70
2022/05/07 02:45:09;;;;;;;3.13;1.98;;;;;;;5.07;100.00;99057.75;5044222;28;20325;-70
2022/05/07 02:47:40;;;;;;;2.60;1.70;;;;;;;5.02;100.00;99054.22;5044250;28;20120;-70
2022/05/07 02:50:07;;;;;;;1.67;1.27;;;;;;;5.19;100.00;99063.09;5044230;28;20025;-70
2022/05/07 02:52:33;;;;;;;3.03;1.98;;;;;;;5.15;99.89;99063.91;5044422;28;20225;-70
2022/05/07 02:55:08;;;;;;;3.60;2.30;;;;;;;5.14;99.73;99072.59;5044074;28;20096;-70
2022/05/07 02:57:33;;;;;;;3.67;1.65;;;;;;;5.11;99.71;99062.13;5044007;28;20093;-70
2022/05/07 02:59:59;;;;;;;2.40;1.65;;;;;;;5.15;99.25;99066.53;5044083;28;20021;-70
2022/05/07 03:02:24;;;;;;;2.53;1.50;;;;;;;5.14;98.59;99059.56;5059815;28;20101;-70
2022/05/07 03:04:53;;;;;;;2.97;1.70;;;;;;;5.02;98.43;99060.34;5063789;28;20060;-70
2022/05/07 03:07:18;;;;;;;2.33;1.70;;;;;;;5.02;99.34;99059.44;5048848;28;20032;-70
2022/05/07 03:09:44;;;;;;;3.13;1.42;;;;;;;4.95;99.49;99057.66;5043934;28;20033;-70
2022/05/07 03:12:10;;;;;;;1.70;1.33;;;;;;;4.87;99.97;99054.09;5043914;28;20056;-70
2022/05/07 03:14:36;;;;;;;2.92;1.70;;;;;;;4.85;100.00;99054.09;5043922;28;20025;-70
2022/05/07 03:17:02;;;;;;;4.15;1.88;;;;;;;4.73;99.67;99053.06;5043835;28;20068;-70
2022/05/07 03:19:28;;;;;;;7.63;2.10;;;;;;;4.73;100.00;99055.69;5043818;28;20022;-70
2022/05/07 03:21:53;;;;;;;3.83;2.08;;;;;;;4.84;100.00;99059.28;5044532;28;20021;-70
2022/05/07 03:24:19;;;;;;;4.88;2.30;;;;;;;4.82;100.00;99053.19;5063879;28;20021;-70
2022/05/07 03:26:44;;;;;;;3.45;2.20;;;;;;;4.77;100.00;99054.88;5063961;28;20084;-70
2022/05/07 03:29:09;;;;;;;3.83;2.35;;;;;;;4.64;100.00;99051.25;5063735;28;20320;-70
2022/05/07 03:31:35;;;;;;;4.65;2.25;;;;;;;4.64;100.00;99060.78;5063645;28;20025;-70
2022/05/07 03:34:01;;;;;;;4.00;2.28;;;;;;;4.55;100.00;99050.28;5063622;28;20021;-70
2022/05/07 03:36:26;;;;;;;4.35;1.90;;;;;;;4.68;100.00;99062.59;5063376;28;20029;-70
2022/05/07 03:38:52;;;;;;;3.10;1.67;;;;;;;4.69;100.00;99053.91;5063818;28;20053;-70
2022/05/07 03:41:20;;;;;;;12.32;2.53;;;;;;;4.67;100.00;99063.44;5059154;28;20340;-70
2022/05/07 03:43:46;;;;;;;2.72;1.73;;;;;;;4.71;99.89;99058.28;5043887;28;20338;-70
2022/05/07 03:46:11;;;;;;;3.83;2.08;;;;;;;4.62;99.70;99062.53;5050957;28;20029;-70
2022/05/07 03:48:37;;;;;;;2.15;1.63;;;;;;;4.58;100.00;99060.75;5063507;28;20029;-70
2022/05/07 03:51:03;;;;;;;5.18;1.77;;;;;;;4.64;99.92;99061.69;5063530;28;20220;-70
2022/05/07 03:53:31;;;;;;;2.92;1.92;;;;;;;4.66;100.00;99053.88;5063513;28;20031;-70
2022/05/07 03:56:01;;;;;;;2.55;1.90;;;;;;;4.64;100.00;99066.00;5063503;28;20025;-70
2022/05/07 03:58:27;;;;;;;3.63;2.03;;;;;;;4.60;99.64;99059.03;5063392;28;20150;-70
2022/05/07 04:00:57;;;;;;;2.47;1.60;;;;;;;4.60;99.49;99056.41;5063371;28;20020;-70
2022/05/07 04:03:25;;;;;;;3.55;2.30;;;;;;;4.56;99.66;99057.25;5063169;28;20063;-70
2022/05/07 04:05:51;;;;;;;3.33;2.00;;;;;;;4.55;99.77;99060.72;5063368;28;20021;-70
2022/05/07 04:08:17;;;;;;;2.42;1.55;;;;;;;4.62;100.00;99054.72;5063595;28;20021;-70
2022/05/07 04:10:43;;;;;;;4.50;1.90;;;;;;;4.69;99.42;99054.81;5063559;28;20021;-70
2022/05/07 04:13:10;;;;;;;2.45;1.40;;;;;;;4.66;98.52;99053.88;5044527;28;20053;-70
2022/05/07 04:15:47;;;;;;;2.78;1.70;;;;;;;4.72;98.45;99059.16;5043608;28;20336;-70
2022/05/07 04:18:12;;;;;;;2.30;1.48;;;;;;;4.71;99.26;99052.22;5043301;28;20045;-70
2022/05/07 04:20:38;;;;;;;3.15;1.85;;;;;;;4.73;99.17;99055.69;5046932;28;20075;-70
2022/05/07 04:23:04;;;;;;;3.53;2.00;;;;;;;4.78;97.82;99059.22;5046889;28;20221;-70
2022/05/07 04:25:29;;;;;;;2.17;1.33;;;;;;;4.62;97.97;99057.31;5046818;28;20022;-70
2022/05/07 04:27:55;;;;;;;2.58;1.60;;;;;;;4.53;100.00;99057.22;5046842;28;20024;-70
2022/05/07 04:30:22;;;;;;;2.97;1.90;;;;;;;4.68;99.65;99047.81;5046771;28;20383;-70
2022/05/07 04:32:48;;;;;;;2.20;1.70;;;;;;;4.80;99.18;99052.28;5046794;28;20053;-70
2022/05/07 04:35:13;;;;;;;1.73;1.58;;;;;;;4.89;98.99;99049.75;5046681;28;20088;-70
2022/05/07 04:37:47;;;;;;;2.60;1.88;;;;;;;4.91;98.56;99048.94;5046562;28;20194;-70
2022/05/07 04:40:13;;;;;;;3.10;1.52;;;;;;;5.01;98.33;99049.88;5059851;28;20052;-70
2022/05/07 04:42:39;;;;;;;2.17;1.38;;;;;;;5.15;98.02;99056.09;5066498;28;20040;-70
2022/05/07 04:45:05;;;;;;;1.88;1.63;;;;;;;5.37;97.23;99048.44;5066131;28;20028;-70
2022/05/07 04:47:31;;;;;;;1.85;1.30;;;;;;;5.81;95.46;99056.59;5066455;28;20075;-70
2022/05/07 04:49:56;;;;;;;2.35;1.40;;;;;;;6.38;92.52;99056.91;5066602;28;20017;-70
2022/05/07 04:52:22;;;;;;;2.70;1.92;;;;;;;6.42;90.67;99051.69;5066382;28;20198;-70
2022/05/07 04:54:48;;;;;;;2.75;1.80;;;;;;;6.61;91.02;99055.22;5066364;28;20048;-70
2022/05/07 04:57:14;;;;;;;2.70;1.58;;;;;;;6.74;90.07;99057.00;5066085;28;20028;-70
2022/05/07 04:59:40;;;;;;;3.10;1.73;;;;;;;6.74;89.40;99057.00;5066419;28;20055;-70
2022/05/07 05:02:05;;;;;;;2.35;1.73;;;;;;;7.62;88.12;99064.06;5066052;28;20240;-70
2022/05/07 05:04:30;;;;;;;3.92;2.17;;;;;;;7.91;84.47;99064.91;5065984;28;20048;-70
2022/05/07 05:06:56;;;;;;;3.20;1.88;;;;;;;8.75;82.77;99071.63;5066078;28;20024;-70
2022/05/07 05:09:22;;;;;;;2.55;1.63;;;;;;;9.28;80.78;99085.31;5054194;28;20325;-69
2022/05/07 05:12:22;;;;;;;2.55;1.75;;;;;;;9.54;79.00;99077.22;5046280;28;20026;-69
2022/05/07 05:15:04;;;;;;;2.53;1.70;;;;;;;9.76;78.11;99078.75;5045976;28;20089;-69
2022/05/07 05:17:34;;;;;;;5.78;1.77;;;;;;;10.10;77.77;99080.22;5045858;28;20028;-69
2022/05/07 05:20:01;;;;;;;2.47;1.73;;;;;;;10.59;76.87;99082.28;5053388;28;20031;-69
2022/05/07 05:22:26;;;;;;;3.25;1.75;;;;;;;11.06;76.07;99086.91;5065665;28;20044;-69
2022/05/07 05:25:28;;;;;;;5.72;1.65;;;;;;;11.42;75.01;99086.34;5065438;28;20029;-69
2022/05/07 05:27:54;;;;;;;3.05;1.73;;;;;;;11.68;73.04;99086.00;5065624;28;20367;-69
2022/05/07 05:30:19;;;;;;;3.15;1.58;;;;;;;11.89;73.45;99086.50;5065490;28;20024;-69
2022/05/07 05:32:45;;;;;;;2.13;1.58;;;;;;;11.74;74.84;99081.47;5065534;28;20032;-69
2022/05/07 05:35:16;;;;;;;1.42;1.30;;;;;;;12.27;74.44;99088.41;5065733;28;20228;-69
2022/05/07 05:37:45;;;;;;;3.35;2.10;;;;;;;12.76;74.02;99097.97;5065396;28;20025;-69
2022/05/07 05:40:10;;;;;;;4.30;2.00;;;;;;;13.06;72.81;99095.66;5047112;28;20028;-70
2022/05/07 05:42:36;;;;;;;3.38;1.60;;;;;;;13.67;70.52;99093.31;5045414;28;20089;-70
2022/05/07 05:45:01;;;;;;;3.00;1.80;;;;;;;14.02;67.79;99085.38;5045353;28;20021;-70
2022/05/07 05:47:27;;;;;;;2.60;1.83;;;;;;;14.21;66.96;99091.94;5045378;28;20240;-70
2022/05/07 05:49:52;;;;;;;3.67;1.80;;;;;;;14.29;66.42;99085.53;5045273;28;20040;-70
2022/05/07 05:52:18;;;;;;;3.78;1.77;;;;;;;14.41;66.23;99094.94;5045456;28;20049;-70
2022/05/07 05:54:45;;;;;;;3.63;2.15;;;;;;;14.71;64.97;99102.00;5045158;28;20220;-70
2022/05/07 05:57:10;;;;;;;2.72;1.90;;;;;;;15.03;65.83;99101.97;5045115;28;20114;-70
2022/05/07 05:59:36;;;;;;;7.30;2.20;;;;;;;15.47;64.20;99104.16;5045027;28;20022;-70
2022/05/07 06:02:07;;;;;;;2.47;1.83;;;;;;;15.69;64.03;99102.53;5045211;28;20237;-70
2022/05/07 06:04:33;;;;;;;3.30;2.17;;;;;;;15.70;63.27;99100.78;5044918;28;20037;-70
2022/05/07 06:07:01;;;;;;;5.10;2.20;;;;;;;16.25;63.66;99109.50;5044951;28;20032;-70
2022/05/07 06:09:28;;;;;;;3.85;2.38;;;;;;;16.28;63.75;99112.06;5046044;28;20025;-70
2022/05/07 06:11:56;;;;;;;4.55;2.17;;;;;;;16.25;62.95;99109.50;5044810;28;20032;-70
2022/05/07 06:14:22;;;;;;;5.28;1.88;;;;;;;17.04;62.06;99116.38;5044780;28;20041;-70
2022/05/07 06:16:48;;;;;;;2.92;1.95;;;;;;;17.04;62.12;99116.38;5044814;28;20095;-70
2022/05/07 06:19:16;;;;;;;2.78;1.92;;;;;;;17.69;62.24;99113.88;5044607;28;20050;-70
2022/05/07 06:21:41;;;;;;;3.90;2.30;;;;;;;17.27;60.44;99106.66;5044667;28;20025;-70
2022/05/07 06:29:39;;;;;;;4.60;2.40;;;;;;;18.28;61.93;99111.34;5044542;28;20024;-70
2022/05/07 06:32:04;;;;;;;5.63;2.75;;;;;;;18.47;61.68;99107.88;5044506;28;20052;-70
2022/05/07 06:34:53;;;;;;;4.93;2.47;;;;;;;19.13;59.32;99114.66;5044422;28;20091;-70
2022/05/07 06:37:18;;;;;;;6.97;2.75;;;;;;;19.18;59.57;99120.69;5044453;28;20047;-70
2022/05/07 06:39:51;;;;;;;6.15;3.30;;;;;;;19.19;58.51;99114.38;5045494;28;20325;-70
2022/05/07 06:42:17;;;;;;;6.20;3.03;;;;;;;19.80;57.40;99115.06;5043645;28;20079;-70
2022/05/07 06:44:43;;;;;;;3.65;2.88;;;;;;;20.41;58.85;99117.28;5044276;28;20040;-70
2022/05/07 06:47:08;;;;;;;4.57;2.88;;;;;;;20.72;57.25;99120.09;5044249;28;20093;-70
2022/05/07 06:49:34;;;;;;;5.15;3.03;;;;;;;21.04;55.50;99119.28;5044172;28;20024;-70
2022/05/07 06:51:59;;;;;;;6.50;3.30;;;;;;;21.36;54.33;99111.31;5044194;28;20018;-70
2022/05/07 06:54:24;;;;;;;5.82;3.97;;;;;;;21.48;56.01;99114.19;5044171;28;20047;-70
2022/05/07 06:56:50;;;;;;;5.50;3.30;;;;;;;21.63;55.32;99112.44;5044206;28;20276;-70
2022/05/07 06:59:15;;;;;;;7.30;4.07;;;;;;;22.22;52.95;99107.25;5057053;28;20059;-70
2022/05/07 07:01:47;;;;;;;5.65;3.72;;;;;;;22.33;51.35;99096.75;5062393;28;20084;-70
2022/05/07 07:04:13;;;;;;;6.72;4.47;;;;;;;22.62;51.94;99112.88;5062794;28;20036;-70
2022/05/07 07:06:39;;;;;;;6.65;3.88;;;;;;;22.84;51.59;99107.03;5063036;28;20033;-70
2022/05/07 07:09:04;;;;;;;6.53;4.72;;;;;;;22.80;50.63;99105.50;5061372;28;20027;-70
2022/05/07 07:11:31;;;;;;;8.65;4.00;;;;;;;22.76;52.88;99109.34;5062964;28;20088;-70
2022/05/07 07:13:56;;;;;;;6.38;4.32;;;;;;;23.47;52.21;99107.59;5062544;28;20197;-70
2022/05/07 07:16:22;;;;;;;6.63;3.92;;;;;;;23.43;51.57;99112.28;5062890;28;20021;-70
2022/05/07 07:19:02;;;;;;;6.53;4.55;;;;;;;23.63;49.48;99105.66;5062812;28;20028;-70
2022/05/07 07:21:27;;;;;;;7.57;4.97;;;;;;;23.02;50.66;99105.91;5062851;28;20020;-70
2022/05/07 07:23:53;;;;;;;6.72;4.55;;;;;;;23.41;49.54;99111.50;5063104;28;20024;-71
2022/05/07 07:26:19;;;;;;;10.77;5.20;;;;;;;23.89;48.23;99105.66;5062845;28;20044;-71
2022/05/07 07:28:44;;;;;;;7.65;4.47;;;;;;;23.56;47.78;99107.84;5062394;28;20021;-71
2022/05/07 07:31:10;;;;;;;6.00;4.40;;;;;;;23.72;46.47;99097.84;5062748;28;20205;-71
2022/05/07 07:33:50;;;;;;;6.35;3.92;;;;;;;23.57;45.68;99104.19;5063000;28;20028;-70
2022/05/07 07:36:18;;;;;;;6.68;4.18;;;;;;;23.93;45.26;99101.81;5062698;28;20113;-70
2022/05/07 07:38:43;;;;;;;7.07;3.78;;;;;;;24.55;44.89;99106.56;5052236;28;20047;-69
2022/05/07 07:41:09;;;;;;;5.38;3.92;;;;;;;24.77;45.66;99109.53;5042298;28;20025;-69
2022/05/07 07:43:37;;;;;;;6.20;4.30;;;;;;;24.00;46.37;99099.59;5042766;28;20099;-70
2022/05/07 07:49:04;;;;;;;7.53;4.15;;;;;;;25.17;46.54;99110.28;5043814;28;20088;-70
2022/05/07 07:51:29;;;;;;;9.00;4.78;;;;;;;24.61;45.98;99105.25;5054722;28;20263;-70
2022/05/07 07:54:01;;;;;;;5.82;4.00;;;;;;;25.36;45.63;99109.88;5055879;28;20017;-70
2022/05/07 07:56:26;;;;;;;;;;;;;;;24.76;46.03;99115.91;5066251;28;20337;-71
2022/05/07 07:58:57;;;;;;;4.25;2.53;;;;;;;25.53;42.77;99106.84;5067377;28;19983;-71
2022/05/07 08:01:22;;;;;;;5.28;3.65;;;;;;;25.48;42.26;99099.09;5067344;28;20032;-71
2022/05/07 08:03:56;;;;;;;4.38;2.80;;;;;;;25.68;42.15;99111.09;5067056;28;20041;-70
2022/05/07 08:06:21;;;;;;;8.25;3.17;;;;;;;26.25;41.11;99107.69;5067349;28;20028;-71
2022/05/07 08:11:59;;;;;;;6.60;3.58;;;;;;;26.17;41.46;99098.47;5067167;28;20081;-71
2022/05/07 08:14:24;;;;;;;6.30;3.10;;;;;;;26.67;42.86;99103.59;5067017;28;20035;-71
2022/05/07 08:16:50;;;;;;;5.03;3.30;;;;;;;26.92;40.41;99114.19;5067106;28;20024;-71
2022/05/07 08:19:16;;;;;;;4.35;3.28;;;;;;;26.78;41.41;99107.19;5066882;28;20216;-71
2022/05/07 08:21:42;;;;;;;5.90;2.90;;;;;;;26.77;40.57;99110.03;5066954;28;20021;-71
2022/05/07 08:24:07;;;;;;;4.15;2.90;;;;;;;26.85;39.90;99112.97;5066859;28;20036;-71
2022/05/07 08:26:33;;;;;;;4.63;2.67;;;;;;;26.47;39.60;99106.91;5066805;28;20021;-71
2022/05/07 08:28:58;;;;;;;5.40;2.50;;;;;;;26.75;39.07;99107.44;5066815;28;20017;-71
2022/05/07 08:31:24;;;;;;;3.50;2.20;;;;;;;25.87;39.32;99100.69;5066718;28;20032;-71
2022/05/07 08:33:50;;;;;;;3.92;2.35;;;;;;;26.57;40.55;99100.72;5066780;28;20035;-71
2022/05/07 08:36:16;;;;;;;4.20;2.10;;;;;;;27.08;40.39;99098.50;5066620;28;20063;-70
2022/05/07 08:38:43;;;;;;;8.07;2.70;;;;;;;27.36;39.59;99098.06;5066466;28;20029;-71
2022/05/07 08:41:13;;;;;;;3.92;2.35;;;;;;;27.54;39.11;99093.91;5066541;28;20020;-71
2022/05/07 08:43:41;;;;;;;3.25;2.13;;;;;;;27.17;38.05;99103.19;5066492;28;20386;-71
2022/05/07 08:46:16;;;;;;;3.05;1.88;;;;;;;27.43;38.46;99093.94;5066430;28;20027;-71
2022/05/07 08:48:43;;;;;;;3.00;2.05;;;;;;;27.28;39.55;99097.84;5066335;28;20055;-70
2022/05/07 08:51:09;;;;;;;4.18;2.50;;;;;;;26.40;40.33;99089.47;5066305;28;20052;-71
2022/05/07 08:53:34;;;;;;;3.90;1.90;;;;;;;26.01;42.54;99082.56;5064643;28;20029;-71
2022/05/07 08:56:01;;;;;;;3.67;2.35;;;;;;;27.14;39.34;99092.63;5066089;28;20027;-71
2022/05/07 08:58:27;;;;;;;2.42;2.03;;;;;;;27.33;40.90;99092.91;5066081;28;20029;-71
2022/05/07 09:00:52;;;;;;;3.65;1.98;;;;;;;27.10;41.06;99085.75;5066298;28;20088;-71
2022/05/07 09:03:18;;;;;;;2.70;2.00;;;;;;;27.25;40.39;99073.75;5065924;28;20044;-71
2022/05/07 09:05:44;;;;;;;3.28;1.85;;;;;;;26.77;40.19;99074.91;5065556;28;20347;-71
2022/05/07 09:08:12;;;;;;;1.80;1.65;;;;;;;26.67;40.33;99084.69;5066068;28;20021;-71
2022/05/07 09:10:39;;;;;;;2.85;1.60;;;;;;;27.50;36.67;99087.03;5066004;28;20047;-71
2022/05/07 09:13:14;;;;;;;2.97;1.70;;;;;;;27.91;37.01;99079.13;5065990;28;20320;-71
2022/05/07 09:15:54;;;;;;;4.50;1.83;;;;;;;27.55;38.55;99082.09;5065927;28;20024;-71
2022/05/07 09:18:22;;;;;;;2.22;1.40;;;;;;;27.33;38.56;99076.69;5065690;28;20056;-71
2022/05/07 09:21:19;;;;;;;1.73;1.40;;;;;;;27.04;39.27;99075.41;5065805;28;20051;-71
2022/05/07 09:23:45;;;;;;;4.03;1.63;;;;;;;27.87;36.45;99083.06;5065788;28;20025;-71
2022/05/07 09:26:44;;;;;;;5.43;1.60;;;;;;;27.72;37.80;99078.88;5065687;28;20024;-71
2022/05/07 09:29:11;;;;;;;2.65;1.60;;;;;;;27.92;35.23;99075.44;5065670;28;20131;-71
2022/05/07 09:31:41;;;;;;;2.60;1.70;;;;;;;28.00;34.83;99066.69;5065604;28;20025;-71
2022/05/07 09:37:18;;;;;;;;;;;;;;;25.19;39.87;99060.72;5065903;28;20032;-71
2022/05/07 09:39:51;;;;;;;2.83;1.30;;;;;;;24.75;38.65;99065.72;5065368;28;19983;-71
2022/05/07 09:42:19;;;;;;;1.50;1.30;;;;;;;24.30;39.83;99052.69;5065428;28;20028;-71
2022/05/07 09:44:45;;;;;;;2.08;1.50;;;;;;;23.64;40.93;99040.16;5065329;28;20025;-71
2022/05/07 09:47:12;;;;;;;3.30;1.60;;;;;;;23.12;40.87;99053.38;5065343;28;20025;-71
2022/05/07 09:50:20;;;;;;;3.28;1.58;;;;;;;23.51;40.04;99050.88;5065311;28;20024;-71
2022/05/07 09:52:29;;;;;;;3.55;1.33;;;;;;;23.17;40.50;99045.88;5065101;28;20039;-71
2022/05/07 09:57:39;;;;;;;2.47;1.50;;;;;;;22.61;42.18;99045.88;5065043;28;20155;-71
2022/05/07 10:00:07;;;;;;;5.53;1.50;;;;;;;23.12;42.52;99048.00;5065036;28;20320;-71
2022/05/07 10:02:52;;;;;;;3.30;1.48;;;;;;;22.91;42.19;99046.69;5064853;28;20031;-71
2022/05/07 10:05:26;;;;;;;1.95;1.30;;;;;;;21.80;42.15;99037.38;5064917;28;20033;-71
2022/05/07 10:08:25;;;;;;;2.25;1.50;;;;;;;21.94;40.77;99037.44;5064909;28;20048;-71
2022/05/07 10:10:52;;;;;;;4.72;1.65;;;;;;;21.58;42.43;99039.53;5064800;28;20051;-71
2022/05/07 10:13:20;;;;;;;2.08;1.45;;;;;;;21.86;41.52;99034.34;5065072;28;20374;-71
2022/05/07 10:15:45;;;;;;;3.80;1.52;;;;;;;21.82;40.78;99032.78;5064371;28;20017;-71
2022/05/07 10:18:15;;;;;;;1.20;1.00;;;;;;;22.07;41.85;99033.06;5060547;28;20029;-71
2022/05/07 10:20:41;;;;;;;3.05;1.70;;;;;;;21.83;40.77;99029.16;5060454;28;20071;-71
2022/05/07 10:23:11;;;;;;;2.67;1.50;;;;;;;22.13;41.37;99025.53;5064693;28;20251;-71
2022/05/07 10:25:37;;;;;;;3.67;1.75;;;;;;;22.81;40.37;99027.56;5076955;28;20051;-71
2022/05/07 10:28:14;;;;;;;3.55;1.45;;;;;;;23.65;40.17;99037.38;5069955;28;20127;-71
2022/05/07 10:30:50;;;;;;;3.13;1.60;;;;;;;23.85;37.44;99034.22;5080959;28;20023;-71
2022/05/07 10:33:18;;;;;;;1.77;1.27;;;;;;;24.04;38.49;99029.38;5072353;28;20020;-71
2022/05/07 10:35:45;;;;;;;2.70;1.48;;;;;;;24.00;37.48;99027.00;5072743;28;20308;-71
2022/05/07 10:38:16;;;;;;;4.40;1.63;;;;;;;23.27;38.11;99028.25;5079772;28;20031;-71
2022/05/07 10:41:04;;;;;;;2.60;1.33;;;;;;;22.93;39.52;99009.84;5067619;28;20076;-71
2022/05/07 10:43:42;;;;;;;1.80;1.20;;;;;;;23.08;38.87;99016.94;5074383;28;20027;-71
2022/05/07 10:46:07;;;;;;;1.73;1.30;;;;;;;22.95;40.41;99013.31;5079665;28;20056;-71
2022/05/07 10:48:44;;;;;;;2.88;1.33;;;;;;;23.02;42.38;99020.00;5067550;28;20358;-71
2022/05/07 10:51:17;;;;;;;4.57;1.55;;;;;;;22.67;43.51;99021.34;5076672;28;20316;-71
2022/05/07 10:53:43;;;;;;;3.38;1.38;;;;;;;23.57;42.66;99018.19;5059125;28;20036;-71
2022/05/07 10:56:17;;;;;;;3.35;1.42;;;;;;;23.27;39.57;99010.31;5049678;28;20092;-71
2022/05/07 10:58:50;;;;;;;2.72;1.38;;;;;;;23.73;37.23;99018.91;5057250;28;20024;-71
2022/05/07 11:01:20;;;;;;;2.70;1.58;;;;;;;23.64;38.16;99014.16;5044437;28;20021;-71
2022/05/07 11:03:47;;;;;;;2.33;1.20;;;;;;;23.65;38.44;99005.13;5063390;28;20037;-71
2022/05/07 11:06:13;;;;;;;2.88;0.90;;;;;;;23.49;40.01;99004.41;5055764;28;20092;-71
2022/05/07 11:08:54;;;;;;;1.40;1.10;;;;;;;23.35;40.80;99004.47;5050051;28;20024;-71
2022/05/07 11:11:20;;;;;;;1.33;1.23;;;;;;;23.68;41.21;99004.94;5048064;28;20052;-71
2022/05/07 11:13:48;;;;;;;2.95;1.17;;;;;;;23.76;40.17;99002.56;5054327;28;20075;-70
2022/05/07 11:16:17;;;;;;;3.28;1.50;;;;;;;23.61;38.36;98998.25;5063389;28;20150;-69
2022/05/07 11:18:51;;;;;;;1.15;1.00;;;;;;;23.61;39.11;98990.19;5063250;28;20032;-67
2022/05/07 11:21:20;;;;;;;3.33;1.20;;;;;;;23.87;38.67;98993.78;5058540;28;20305;-67
2022/05/07 11:23:57;;;;;;;4.97;1.50;;;;;;;24.09;40.85;98994.97;5052244;28;20088;-68
2022/05/07 11:26:23;;;;;;;2.33;1.45;;;;;;;24.26;37.64;98991.97;5063286;28;20075;-69
2022/05/07 11:28:49;;;;;;;2.63;1.48;;;;;;;23.34;36.84;98983.91;5050655;28;20372;-69
2022/05/07 11:31:34;;;;;;;2.45;1.30;;;;;;;24.18;36.98;98997.03;5048163;28;20336;-69
2022/05/07 11:34:11;;;;;;;4.85;1.42;;;;;;;23.91;40.03;98998.88;5047852;28;20025;-69
2022/05/07 11:36:38;;;;;;;2.40;0.80;;;;;;;23.37;37.43;98986.41;5051195;28;20099;-69
2022/05/07 11:39:08;;;;;;;2.55;1.30;;;;;;;22.94;41.21;98990.09;5067207;28;20036;-69
2022/05/07 11:41:34;;;;;;;1.90;1.23;;;;;;;23.53;38.41;98989.81;5066898;28;20216;-69
2022/05/07 11:46:55;;;;;;;1.80;1.23;;;;;;;22.99;41.79;98977.22;5063588;28;20063;-69
2022/05/07 11:49:33;;;;;;;1.67;1.05;;;;;;;23.20;41.72;98981.25;5047682;28;20088;-69
2022/05/07 11:52:12;;;;;;;2.47;1.27;;;;;;;23.65;37.20;98989.00;5047859;28;20029;-69
2022/05/07 11:54:51;;;;;;;2.17;1.30;;;;;;;23.69;38.67;98979.75;5048661;28;20092;-69
2022/05/07 11:57:30;;;;;;;2.67;1.48;;;;;;;24.08;40.56;98982.47;5047428;28;20394;-70
2022/05/07 11:59:56;;;;;;;4.65;1.42;;;;;;;23.96;38.87;98983.31;5047410;28;20032;-70
2022/05/07 12:02:21;;;;;;;2.22;1.15;;;;;;;23.49;41.19;98982.91;5060830;28;20295;-70
2022/05/07 12:04:57;;;;;;;3.80;1.40;;;;;;;23.20;42.80;98978.56;5054386;28;20045;-70
2022/05/07 12:07:22;;;;;;;3.10;1.40;;;;;;;23.28;41.01;98987.00;5059248;28;20279;-70
2022/05/07 12:09:48;;;;;;;4.57;1.50;;;;;;;23.27;39.31;98979.91;5066552;28;20070;-70